TAFS

Station TAF
VRMM
VRMM 022300Z 0300/0406 06009KT 9999 FEW018 TEMPO 0300/0306 FEW019CB=
VRMH
VRMH 022300Z 0300/0406 02006T 9999 FEW018 TEMPO 0300/0306 FEW018CB=
VRMK
VRMK 022300Z 0300/0324 02004KT 9999 FEW018=
VRMT
VRMT 022300Z 0300/0324 02003KT 9999 FEW018=
VRMG
VRMG 022300Z 0300/0406 04008KT 9999 FEW018 TEMPO 0300/0306 FEW019CB=